createdAt,value
2017-06-19T00:00:34.390Z,19.11
2017-06-19T00:01:43.281Z,19.14
2017-06-19T00:02:52.174Z,19.07
2017-06-19T00:04:01.395Z,18.99
2017-06-19T00:05:11.034Z,18.95
2017-06-19T00:06:20.255Z,18.91
2017-06-19T00:07:29.474Z,19
2017-06-19T00:08:38.686Z,18.91
2017-06-19T00:09:47.573Z,18.92
2017-06-19T00:10:56.501Z,18.95
2017-06-19T00:12:05.714Z,18.9
2017-06-19T00:13:14.931Z,18.88
2017-06-19T00:14:23.818Z,18.98
2017-06-19T00:15:32.708Z,18.8
2017-06-19T00:16:41.754Z,18.81
2017-06-19T00:17:50.647Z,18.87
2017-06-19T00:18:59.538Z,18.85
2017-06-19T00:20:08.432Z,18.84
2017-06-19T00:21:17.645Z,18.84
2017-06-19T00:22:26.688Z,18.75
2017-06-19T00:23:35.583Z,18.85
2017-06-19T00:24:44.474Z,18.72
2017-06-19T00:25:53.367Z,18.78
2017-06-19T00:27:02.259Z,18.8
2017-06-19T00:28:11.770Z,18.65
2017-06-19T00:29:20.986Z,18.7
2017-06-19T00:30:29.876Z,18.66
2017-06-19T00:31:38.768Z,18.76
2017-06-19T00:32:47.982Z,18.65
2017-06-19T00:33:57.022Z,18.58
2017-06-19T00:35:05.914Z,18.57
2017-06-19T00:36:15.130Z,18.63
2017-06-19T00:37:24.025Z,18.54
2017-06-19T00:38:33.562Z,18.58
2017-06-19T00:39:42.925Z,18.42
2017-06-19T00:40:51.816Z,18.45
2017-06-19T00:42:01.030Z,18.52
2017-06-19T00:43:09.923Z,18.5
2017-06-19T00:44:18.814Z,18.5
2017-06-19T00:45:27.706Z,18.48
2017-06-19T00:46:36.924Z,18.5
2017-06-19T00:47:45.816Z,18.48
2017-06-19T00:48:54.708Z,18.39
2017-06-19T00:50:03.593Z,18.36
2017-06-19T00:51:12.685Z,18.42
2017-06-19T00:52:21.576Z,18.35
2017-06-19T00:53:30.467Z,18.35
2017-06-19T00:54:39.358Z,18.3
2017-06-19T00:55:48.249Z,18.29
2017-06-19T00:56:57.140Z,18.3
2017-06-19T00:58:06.355Z,18.3
2017-06-19T00:59:15.247Z,18.33
2017-06-19T01:00:24.463Z,18.32
2017-06-19T01:01:33.356Z,18.27
2017-06-19T01:02:43.050Z,18.29
2017-06-19T01:03:51.940Z,18.29
2017-06-19T01:05:00.831Z,18.18
2017-06-19T01:06:09.724Z,18.17
2017-06-19T01:07:19.262Z,18.12
2017-06-19T01:08:28.151Z,18.15
2017-06-19T01:09:37.369Z,18.18
2017-06-19T01:10:46.261Z,18.2
2017-06-19T01:11:55.480Z,18.2
2017-06-19T01:13:04.372Z,18.21
2017-06-19T01:14:13.265Z,18.18
2017-06-19T01:15:22.157Z,18.21
2017-06-19T01:16:31.046Z,18.15
2017-06-19T01:17:40.264Z,18.21
2017-06-19T01:18:49.152Z,18.18
2017-06-19T01:19:58.344Z,18.17
2017-06-19T01:21:07.236Z,18.23
2017-06-19T01:22:16.451Z,18.11
2017-06-19T01:23:25.666Z,18.03
2017-06-19T01:24:34.584Z,18.11
2017-06-19T01:25:43.577Z,18.1
2017-06-19T01:26:52.470Z,18.1
2017-06-19T01:28:01.366Z,18
2017-06-19T01:29:10.258Z,18.03
2017-06-19T01:30:19.147Z,18.11
2017-06-19T01:31:28.037Z,18
2017-06-19T01:32:36.959Z,18.05
2017-06-19T01:33:45.847Z,18.05
2017-06-19T01:34:55.063Z,17.99
2017-06-19T01:36:04.601Z,17.96
2017-06-19T01:37:13.791Z,17.99
2017-06-19T01:38:22.678Z,17.93
2017-06-19T01:39:31.898Z,17.97
2017-06-19T01:40:41.147Z,17.95
2017-06-19T01:41:50.364Z,17.99
2017-06-19T01:42:59.403Z,17.99
2017-06-19T01:44:08.302Z,17.96
2017-06-19T01:45:17.517Z,17.93
2017-06-19T01:46:26.415Z,17.89
2017-06-19T01:47:36.278Z,17.86
2017-06-19T01:48:45.417Z,17.89
2017-06-19T01:49:54.632Z,17.89
2017-06-19T01:51:04.173Z,17.87
2017-06-19T01:52:13.066Z,17.81
2017-06-19T01:53:22.604Z,17.81
2017-06-19T01:54:32.121Z,17.81
2017-06-19T01:55:41.013Z,17.74
2017-06-19T01:56:50.231Z,17.75
2017-06-19T01:57:59.450Z,17.79
2017-06-19T01:59:08.665Z,17.75
2017-06-19T02:00:18.183Z,17.74
2017-06-19T02:01:27.078Z,17.71
2017-06-19T02:02:36.296Z,17.64
2017-06-19T02:03:45.515Z,17.63
2017-06-19T02:04:54.406Z,17.71
2017-06-19T02:06:03.298Z,17.68
2017-06-19T02:07:12.188Z,17.68
2017-06-19T02:08:21.397Z,17.64
2017-06-19T02:09:30.616Z,17.63
2017-06-19T02:10:39.832Z,17.46
2017-06-19T02:11:49.297Z,17.54
2017-06-19T02:12:58.190Z,17.56
2017-06-19T02:14:07.079Z,17.63
2017-06-19T02:15:15.968Z,17.55
2017-06-19T02:16:24.858Z,17.52
2017-06-19T02:17:33.801Z,17.51
2017-06-19T02:18:42.695Z,17.51
2017-06-19T02:19:51.585Z,17.48
2017-06-19T02:21:00.477Z,17.49
2017-06-19T02:22:10.018Z,17.48
2017-06-19T02:23:19.614Z,17.46
2017-06-19T02:24:28.501Z,17.41
2017-06-19T02:25:37.716Z,17.4
2017-06-19T02:26:46.611Z,17.41
2017-06-19T02:27:55.502Z,17.38
2017-06-19T02:29:04.822Z,17.38
2017-06-19T02:30:13.709Z,17.31
2017-06-19T02:31:23.249Z,17.34
2017-06-19T02:32:32.464Z,17.31
2017-06-19T02:33:41.355Z,17.3
2017-06-19T02:34:50.720Z,17.28
2017-06-19T02:36:00.586Z,17.23
2017-06-19T02:37:09.803Z,17.3
2017-06-19T02:38:19.048Z,17.25
2017-06-19T02:39:27.943Z,17.3
2017-06-19T02:40:37.258Z,17.3
2017-06-19T02:41:46.474Z,17.21
2017-06-19T02:42:55.687Z,17.23
2017-06-19T02:44:05.226Z,17.18
2017-06-19T02:45:14.443Z,17.18
2017-06-19T02:46:23.331Z,17.22
2017-06-19T02:47:32.227Z,17.16
2017-06-19T02:48:41.765Z,17.15
2017-06-19T02:49:50.658Z,17.15
2017-06-19T02:50:59.545Z,17.15
2017-06-19T02:52:08.583Z,17.14
2017-06-19T02:53:17.471Z,17.14
2017-06-19T02:54:26.362Z,17.18
2017-06-19T02:55:35.576Z,17.18
2017-06-19T02:56:44.464Z,17.08
2017-06-19T02:57:53.729Z,17.18
2017-06-19T02:59:02.618Z,17.12
2017-06-19T03:00:11.510Z,17.06
2017-06-19T03:01:20.399Z,17.12
2017-06-19T03:02:29.316Z,17.15
2017-06-19T03:03:38.207Z,17.06
2017-06-19T03:04:47.422Z,17.08
2017-06-19T03:05:56.640Z,17.06
2017-06-19T03:07:05.529Z,17.08
2017-06-19T03:08:14.416Z,17.08
2017-06-19T03:09:23.777Z,17.03
2017-06-19T03:10:32.665Z,17.06
2017-06-19T03:11:41.554Z,17.04
2017-06-19T03:12:50.441Z,17
2017-06-19T03:13:59.332Z,17.06
2017-06-19T03:15:08.274Z,17.08
2017-06-19T03:16:17.170Z,17.04
2017-06-19T03:17:26.387Z,16.93
2017-06-19T03:18:35.275Z,16.94
2017-06-19T03:19:44.165Z,17.01
2017-06-19T03:20:53.053Z,17
2017-06-19T03:22:01.945Z,17.01
2017-06-19T03:23:10.840Z,16.98
2017-06-19T03:24:19.730Z,16.91
2017-06-19T03:25:29.272Z,16.91
2017-06-19T03:26:38.168Z,16.94
2017-06-19T03:27:47.055Z,16.97
2017-06-19T03:28:55.944Z,16.93
2017-06-19T03:30:04.836Z,17.08
2017-06-19T03:31:14.376Z,17.12
2017-06-19T03:32:23.565Z,17.01
2017-06-19T03:33:32.451Z,17.04
2017-06-19T03:34:41.662Z,17.08
2017-06-19T03:35:50.558Z,17.06
2017-06-19T03:36:59.448Z,16.98
2017-06-19T03:38:08.765Z,17.07
2017-06-19T03:39:17.655Z,16.96
2017-06-19T03:40:27.196Z,17.03
2017-06-19T03:41:36.410Z,16.94
2017-06-19T03:42:45.624Z,17.06
2017-06-19T03:43:54.615Z,16.94
2017-06-19T03:45:03.825Z,17.01
2017-06-19T03:46:12.742Z,16.98
2017-06-19T03:47:22.281Z,16.96
2017-06-19T03:48:31.512Z,17.03
2017-06-19T03:49:40.402Z,16.93
2017-06-19T03:50:49.621Z,17
2017-06-19T03:51:58.516Z,17
2017-06-19T03:53:07.408Z,16.96
2017-06-19T03:54:16.943Z,17.07
2017-06-19T03:55:25.982Z,17.08
2017-06-19T03:56:34.870Z,17.07
2017-06-19T03:57:43.765Z,17.01
2017-06-19T03:58:53.304Z,17.06
2017-06-19T04:00:03.167Z,17.14
2017-06-19T04:01:12.432Z,17.11
2017-06-19T04:02:21.324Z,17.15
2017-06-19T04:03:31.745Z,17.19
2017-06-19T04:04:40.638Z,17.12
2017-06-19T04:05:49.531Z,17.11
2017-06-19T04:06:58.804Z,17.19
2017-06-19T04:08:08.017Z,17.15
2017-06-19T04:09:16.907Z,17.15
2017-06-19T04:10:26.122Z,17.21
2017-06-19T04:11:35.014Z,17.23
2017-06-19T04:12:44.326Z,17.16
2017-06-19T04:13:53.217Z,17.21
2017-06-19T04:15:02.109Z,17.23
2017-06-19T04:16:10.998Z,17.16
2017-06-19T04:17:19.887Z,17.22
2017-06-19T04:18:29.728Z,17.26
2017-06-19T04:19:38.616Z,17.31
2017-06-19T04:20:47.830Z,17.3
2017-06-19T04:21:56.720Z,17.37
2017-06-19T04:23:05.940Z,17.4
2017-06-19T04:24:15.406Z,17.34
2017-06-19T04:25:24.295Z,17.43
2017-06-19T04:26:33.187Z,17.49
2017-06-19T04:27:42.404Z,17.48
2017-06-19T04:28:51.297Z,17.49
2017-06-19T04:30:00.623Z,17.54
2017-06-19T04:31:09.843Z,17.56
2017-06-19T04:32:18.732Z,17.56
2017-06-19T04:33:27.622Z,17.58
2017-06-19T04:34:36.841Z,17.56
2017-06-19T04:35:46.059Z,17.62
2017-06-19T04:36:54.949Z,17.59
2017-06-19T04:38:03.839Z,17.56
2017-06-19T04:39:12.728Z,17.63
2017-06-19T04:40:21.956Z,17.63
2017-06-19T04:41:31.275Z,17.64
2017-06-19T04:42:40.490Z,17.63
2017-06-19T04:43:49.378Z,17.64
2017-06-19T04:44:58.594Z,17.77
2017-06-19T04:46:07.811Z,17.74
2017-06-19T04:47:16.754Z,17.66
2017-06-19T04:48:25.973Z,17.71
2017-06-19T04:49:34.864Z,17.77
2017-06-19T04:50:44.078Z,17.78
2017-06-19T04:51:52.968Z,17.84
2017-06-19T04:53:01.912Z,17.87
2017-06-19T04:54:11.451Z,17.86
2017-06-19T04:55:20.664Z,17.92
2017-06-19T04:56:29.554Z,17.96
2017-06-19T04:57:38.447Z,18.02
2017-06-19T04:58:47.494Z,18.03
2017-06-19T04:59:56.710Z,18.07
2017-06-19T05:01:05.602Z,18.17
2017-06-19T05:02:15.141Z,18.2
2017-06-19T05:03:24.033Z,18.14
2017-06-19T05:04:32.975Z,18.26
2017-06-19T05:05:41.865Z,18.12
2017-06-19T05:06:50.755Z,18.15
2017-06-19T05:07:59.646Z,18.32
2017-06-19T05:09:08.537Z,18.33
2017-06-19T05:10:17.460Z,18.3
2017-06-19T05:11:26.681Z,18.33
2017-06-19T05:12:35.607Z,18.29
2017-06-19T05:13:44.506Z,18.32
2017-06-19T05:14:53.724Z,18.32
2017-06-19T05:16:02.617Z,18.3
2017-06-19T05:17:11.514Z,18.3
2017-06-19T05:18:20.407Z,18.3
2017-06-19T05:19:29.298Z,18.37
2017-06-19T05:20:38.223Z,18.41
2017-06-19T05:21:47.267Z,18.37
2017-06-19T05:22:56.810Z,18.37
2017-06-19T05:24:06.082Z,18.36
2017-06-19T05:25:14.975Z,18.41
2017-06-19T05:26:23.864Z,18.5
2017-06-19T05:27:32.761Z,18.6
2017-06-19T05:28:41.974Z,18.6
2017-06-19T05:29:51.520Z,18.57
2017-06-19T05:31:00.413Z,18.63
2017-06-19T05:32:09.633Z,18.66
2017-06-19T05:33:19.003Z,18.66
2017-06-19T05:34:27.893Z,18.75
2017-06-19T05:35:36.788Z,18.75
2017-06-19T05:36:45.683Z,18.85
2017-06-19T05:37:54.573Z,18.85
2017-06-19T05:39:03.619Z,18.85
2017-06-19T05:40:12.519Z,18.81
2017-06-19T05:41:21.411Z,18.82
2017-06-19T05:42:30.631Z,18.91
2017-06-19T05:43:39.852Z,18.99
2017-06-19T05:44:48.794Z,18.88
2017-06-19T05:45:58.335Z,18.9
2017-06-19T05:47:07.226Z,19.02
2017-06-19T05:48:16.118Z,19.1
2017-06-19T05:49:25.008Z,19.16
2017-06-19T05:50:34.048Z,19.16
2017-06-19T05:51:42.940Z,19.31
2017-06-19T05:52:51.834Z,19.29
2017-06-19T05:54:01.381Z,19.31
2017-06-19T05:55:10.602Z,19.26
2017-06-19T05:56:19.498Z,19.33
2017-06-19T05:57:28.712Z,19.32
2017-06-19T05:58:37.606Z,19.29
2017-06-19T05:59:46.504Z,19.39
2017-06-19T06:00:55.399Z,19.36
2017-06-19T06:02:04.941Z,19.37
2017-06-19T06:03:14.173Z,19.46
2017-06-19T06:04:23.066Z,19.5
2017-06-19T06:05:32.003Z,19.5
2017-06-19T06:06:40.894Z,19.59
2017-06-19T06:07:49.790Z,19.65
2017-06-19T06:08:58.681Z,19.68
2017-06-19T06:10:07.574Z,19.59
2017-06-19T06:11:16.469Z,19.76
2017-06-19T06:12:25.707Z,19.8
2017-06-19T06:13:34.603Z,19.74
2017-06-19T06:14:43.496Z,19.81
2017-06-19T06:15:53.038Z,19.94
2017-06-19T06:17:02.587Z,19.94
2017-06-19T06:18:11.844Z,19.95
2017-06-19T06:19:20.741Z,20.11
2017-06-19T06:20:29.644Z,20.05
2017-06-19T06:21:38.845Z,19.99
2017-06-19T06:22:47.743Z,20.1
2017-06-19T06:23:57.287Z,20.03
2017-06-19T06:25:06.509Z,20.06
2017-06-19T06:26:15.406Z,20.02
2017-06-19T06:27:24.299Z,20.11
2017-06-19T06:28:33.198Z,20.11
2017-06-19T06:29:42.739Z,20.2
2017-06-19T06:30:51.632Z,20.24
2017-06-19T06:32:00.851Z,20.33
2017-06-19T06:33:09.796Z,20.28
2017-06-19T06:34:18.687Z,20.31
2017-06-19T06:35:27.615Z,20.33
2017-06-19T06:36:37.119Z,20.35
2017-06-19T06:37:46.056Z,20.33
2017-06-19T06:38:55.350Z,20.48
2017-06-19T06:40:04.618Z,20.51
2017-06-19T06:41:13.603Z,20.5
2017-06-19T06:42:22.871Z,20.5
2017-06-19T06:43:31.765Z,20.5
2017-06-19T06:44:40.657Z,20.42
2017-06-19T06:45:49.550Z,20.36
2017-06-19T06:46:58.767Z,20.52
2017-06-19T06:48:07.981Z,20.47
2017-06-19T06:49:17.197Z,20.69
2017-06-19T06:50:26.091Z,20.74
2017-06-19T06:51:34.986Z,20.95
2017-06-19T06:52:44.210Z,20.91
2017-06-19T06:53:53.111Z,20.91
2017-06-19T06:55:02.015Z,20.95
2017-06-19T06:56:10.920Z,20.89
2017-06-19T06:57:19.823Z,20.95
2017-06-19T06:58:28.723Z,20.95
2017-06-19T06:59:37.619Z,20.92
2017-06-19T07:00:46.834Z,21.07
2017-06-19T07:01:56.065Z,21.14
2017-06-19T07:03:05.284Z,21.35
2017-06-19T07:04:14.507Z,21.38
2017-06-19T07:05:23.722Z,21.38
2017-06-19T07:06:32.940Z,21.38
2017-06-19T07:07:42.158Z,21.37
2017-06-19T07:08:51.705Z,21.37
2017-06-19T07:10:00.598Z,21.47
2017-06-19T07:11:09.490Z,21.59
2017-06-19T07:12:18.380Z,21.53
2017-06-19T07:13:27.270Z,21.54
2017-06-19T07:14:36.201Z,21.74
2017-06-19T07:15:45.472Z,21.65
2017-06-19T07:16:54.368Z,21.86
2017-06-19T07:18:03.266Z,21.77
2017-06-19T07:19:12.486Z,21.77
2017-06-19T07:20:21.703Z,21.77
2017-06-19T07:21:30.756Z,21.77
2017-06-19T07:22:39.973Z,22.03
2017-06-19T07:23:48.868Z,22.03
2017-06-19T07:24:57.770Z,22.1
2017-06-19T07:26:06.685Z,22.25
2017-06-19T07:27:15.747Z,22.17
2017-06-19T07:28:24.987Z,22.22
2017-06-19T07:29:33.882Z,22.03
2017-06-19T07:30:43.102Z,22.07
2017-06-19T07:31:51.998Z,22.18
2017-06-19T07:33:01.027Z,22.28
2017-06-19T07:34:10.582Z,22.36
2017-06-19T07:35:19.805Z,22.35
2017-06-19T07:36:28.700Z,22.42
2017-06-19T07:37:37.918Z,22.43
2017-06-19T07:38:46.917Z,22.47
2017-06-19T07:39:55.813Z,22.47
2017-06-19T07:41:05.034Z,22.3
2017-06-19T07:42:13.928Z,22.45
2017-06-19T07:43:22.874Z,22.45
2017-06-19T07:44:32.200Z,22.45
2017-06-19T07:45:41.427Z,22.61
2017-06-19T07:46:50.333Z,22.58
2017-06-19T07:47:59.572Z,22.88
2017-06-19T07:49:08.498Z,22.77
2017-06-19T07:50:17.777Z,23.02
2017-06-19T07:51:26.681Z,22.94
2017-06-19T07:52:35.581Z,22.91
2017-06-19T07:53:44.484Z,22.76
2017-06-19T07:54:53.384Z,22.75
2017-06-19T07:56:02.656Z,22.83
2017-06-19T07:57:11.887Z,23.04
2017-06-19T07:58:20.784Z,23.05
2017-06-19T07:59:30.003Z,23.23
2017-06-19T08:00:38.915Z,23.25
2017-06-19T08:01:47.971Z,23.32
2017-06-19T08:02:56.872Z,23.07
2017-06-19T08:04:06.110Z,23.01
2017-06-19T08:05:15.008Z,23.02
2017-06-19T08:06:23.905Z,23.04
2017-06-19T08:07:33.619Z,23.22
2017-06-19T08:08:43.494Z,23.33
2017-06-19T08:09:53.370Z,23.5
2017-06-19T08:11:02.604Z,23.46
2017-06-19T08:12:12.150Z,23.48
2017-06-19T08:13:21.293Z,23.39
2017-06-19T08:14:30.194Z,23.51
2017-06-19T08:15:39.417Z,23.63
2017-06-19T08:16:48.642Z,23.4
2017-06-19T08:17:57.539Z,23.53
2017-06-19T08:19:06.812Z,23.57
2017-06-19T08:20:17.020Z,23.7
2017-06-19T08:21:26.244Z,23.73
2017-06-19T08:22:35.142Z,23.78
2017-06-19T08:23:44.044Z,23.91
2017-06-19T08:24:53.738Z,23.95
2017-06-19T08:26:02.633Z,24.08
2017-06-19T08:27:11.855Z,24.1
2017-06-19T08:28:21.398Z,24.08
2017-06-19T08:29:30.989Z,24.06
2017-06-19T08:30:40.734Z,24.24
2017-06-19T08:31:49.969Z,24.15
2017-06-19T08:33:00.167Z,24.31
2017-06-19T08:34:09.719Z,24.32
2017-06-19T08:35:19.268Z,24.3
2017-06-19T08:36:28.968Z,24.3
2017-06-19T08:37:38.188Z,24.32
2017-06-19T08:38:47.741Z,24.3
2017-06-19T08:39:57.300Z,24.27
2017-06-19T08:41:06.524Z,24.34
2017-06-19T08:42:15.480Z,24.16
2017-06-19T08:43:24.718Z,24.13
2017-06-19T08:44:33.617Z,24.37
2017-06-19T08:45:42.842Z,24.35
2017-06-19T08:46:51.736Z,24.71
2017-06-19T08:48:00.683Z,24.83
2017-06-19T08:49:09.903Z,24.88
2017-06-19T08:50:18.797Z,24.87
2017-06-19T08:51:27.699Z,24.88
2017-06-19T08:52:37.251Z,24.98
2017-06-19T08:53:46.251Z,24.95
2017-06-19T08:54:56.141Z,24.88
2017-06-19T08:56:05.366Z,24.99
2017-06-19T08:57:14.919Z,25.02
2017-06-19T08:58:23.814Z,24.85
2017-06-19T08:59:33.138Z,24.98
2017-06-19T09:00:42.044Z,25.1
2017-06-19T09:01:50.939Z,25.03
2017-06-19T09:03:00.172Z,24.9
2017-06-19T09:04:09.074Z,24.87
2017-06-19T09:05:17.972Z,25.02
2017-06-19T09:06:26.875Z,25.2
2017-06-19T09:07:36.095Z,25.05
2017-06-19T09:08:44.997Z,25.05
2017-06-19T09:09:54.221Z,25.02
2017-06-19T09:11:03.600Z,25
2017-06-19T09:12:12.834Z,25.17
2017-06-19T09:13:22.381Z,25.24
2017-06-19T09:14:31.278Z,25.39
2017-06-19T09:15:40.176Z,25.5
2017-06-19T09:16:49.220Z,25.47
2017-06-19T09:17:58.120Z,25.6
2017-06-19T09:19:07.341Z,25.36
2017-06-19T09:20:16.563Z,25.32
2017-06-19T09:21:25.460Z,25.43
2017-06-19T09:22:34.837Z,25.38
2017-06-19T09:23:43.737Z,25.51
2017-06-19T09:24:52.636Z,25.65
2017-06-19T09:26:01.533Z,25.67
2017-06-19T09:27:10.758Z,25.7
2017-06-19T09:28:19.981Z,25.79
2017-06-19T09:29:28.925Z,25.85
2017-06-19T09:30:37.827Z,25.87
2017-06-19T09:31:47.389Z,25.91
2017-06-19T09:32:57.260Z,25.9
2017-06-19T09:34:06.358Z,25.95
2017-06-19T09:35:15.583Z,25.94
2017-06-19T09:36:24.481Z,25.95
2017-06-19T09:37:33.708Z,25.91
2017-06-19T09:38:42.928Z,25.99
2017-06-19T09:39:52.531Z,25.94
2017-06-19T09:41:02.086Z,26.02
2017-06-19T09:42:11.310Z,26.07
2017-06-19T09:43:20.204Z,26.09
2017-06-19T09:44:29.755Z,26.07
2017-06-19T09:45:39.078Z,26.06
2017-06-19T09:46:47.977Z,26.1
2017-06-19T09:47:57.197Z,26.18
2017-06-19T09:49:06.416Z,26.28
2017-06-19T09:50:15.313Z,26.48
2017-06-19T09:51:24.211Z,26.45
2017-06-19T09:52:33.114Z,26.5
2017-06-19T09:53:42.661Z,26.5
2017-06-19T09:54:51.888Z,26.32
2017-06-19T09:56:01.434Z,26.47
2017-06-19T09:57:10.384Z,26.47
2017-06-19T09:58:19.618Z,26.52
2017-06-19T09:59:29.524Z,26.58
2017-06-19T10:00:39.071Z,26.63
2017-06-19T10:01:48.296Z,26.72
2017-06-19T10:02:57.300Z,26.84
2017-06-19T10:04:06.879Z,26.7
2017-06-19T10:05:16.103Z,26.63
2017-06-19T10:06:25.002Z,26.65
2017-06-19T10:07:33.901Z,26.66
2017-06-19T10:08:42.847Z,26.75
2017-06-19T10:09:51.746Z,26.8
2017-06-19T10:11:00.646Z,26.95
2017-06-19T10:12:09.864Z,26.89
2017-06-19T10:13:18.763Z,26.95
2017-06-19T10:14:27.662Z,26.92
2017-06-19T10:15:36.888Z,26.94
2017-06-19T10:16:45.790Z,26.92
2017-06-19T10:17:55.025Z,27.1
2017-06-19T10:19:04.249Z,27.1
2017-06-19T10:20:13.634Z,27.17
2017-06-19T10:21:22.539Z,27.14
2017-06-19T10:22:31.762Z,27.22
2017-06-19T10:23:40.659Z,27.37
2017-06-19T10:24:49.561Z,27.46
2017-06-19T10:25:58.967Z,27.46
2017-06-19T10:27:07.873Z,27.47
2017-06-19T10:28:17.431Z,27.46
2017-06-19T10:29:26.356Z,27.43
2017-06-19T10:30:35.257Z,27.44
2017-06-19T10:31:44.159Z,27.4
2017-06-19T10:32:53.060Z,27.43
2017-06-19T10:34:01.974Z,27.49
2017-06-19T10:35:10.881Z,27.63
2017-06-19T10:36:20.101Z,27.46
2017-06-19T10:37:28.997Z,27.21
2017-06-19T10:38:38.545Z,27.39
2017-06-19T10:39:47.781Z,27.49
2017-06-19T10:40:56.680Z,27.62
2017-06-19T10:42:06.235Z,27.65
2017-06-19T10:43:15.135Z,27.66
2017-06-19T10:44:24.035Z,27.75
2017-06-19T10:45:32.937Z,27.92
2017-06-19T10:46:42.167Z,27.93
2017-06-19T10:47:51.392Z,28.03
2017-06-19T10:49:00.716Z,28.02
2017-06-19T10:50:09.618Z,27.99
2017-06-19T10:51:18.514Z,28.02
2017-06-19T10:52:27.738Z,28
2017-06-19T10:53:36.959Z,27.99
2017-06-19T10:54:45.909Z,27.94
2017-06-19T10:55:54.808Z,28.02
2017-06-19T10:57:04.357Z,28.11
2017-06-19T10:58:13.261Z,28.19
2017-06-19T10:59:22.198Z,28.22
2017-06-19T11:00:31.525Z,28.21
2017-06-19T11:01:40.819Z,28.19
2017-06-19T11:02:50.059Z,28.3
2017-06-19T11:03:58.960Z,28.21
2017-06-19T11:05:07.862Z,28.24
2017-06-19T11:06:17.410Z,28.24
2017-06-19T11:07:26.312Z,28.3
2017-06-19T11:08:35.541Z,28.36
2017-06-19T11:09:44.467Z,28.27
2017-06-19T11:10:53.368Z,28.4
2017-06-19T11:12:02.697Z,28.44
2017-06-19T11:13:12.256Z,28.46
2017-06-19T11:14:21.481Z,28.56
2017-06-19T11:15:30.390Z,28.43
2017-06-19T11:16:39.290Z,28.24
2017-06-19T11:17:48.597Z,28.22
2017-06-19T11:18:57.506Z,28.21
2017-06-19T11:20:07.056Z,28.24
2017-06-19T11:21:15.958Z,28.37
2017-06-19T11:22:24.861Z,28.56
2017-06-19T11:23:34.185Z,28.73
2017-06-19T11:24:43.093Z,28.74
2017-06-19T11:25:51.995Z,28.76
2017-06-19T11:27:01.226Z,28.76
2017-06-19T11:28:10.467Z,28.77
2017-06-19T11:29:19.615Z,28.76
2017-06-19T11:30:28.518Z,28.92
2017-06-19T11:31:37.444Z,28.89
2017-06-19T11:32:46.349Z,28.76
2017-06-19T11:33:55.251Z,28.85
2017-06-19T11:35:04.903Z,28.93
2017-06-19T11:36:13.832Z,28.86
2017-06-19T11:37:23.092Z,29
2017-06-19T11:38:32.000Z,28.93
2017-06-19T11:39:40.925Z,28.85
2017-06-19T11:40:50.572Z,28.73
2017-06-19T11:41:59.509Z,28.78
2017-06-19T11:43:08.440Z,28.71
2017-06-19T11:44:18.538Z,28.86
2017-06-19T11:45:27.803Z,28.95
2017-06-19T11:46:36.900Z,29.14
2017-06-19T11:47:46.491Z,29.24
2017-06-19T11:48:55.409Z,29.34
2017-06-19T11:50:04.962Z,29.34
2017-06-19T11:51:13.867Z,29.36
2017-06-19T11:52:22.771Z,29.45
2017-06-19T11:53:31.672Z,29.48
2017-06-19T11:54:40.580Z,29.58
2017-06-19T11:55:49.485Z,29.67
2017-06-19T11:56:58.388Z,29.78
2017-06-19T11:58:07.693Z,29.8
2017-06-19T11:59:16.924Z,29.87
2017-06-19T12:00:26.152Z,30.01
2017-06-19T12:01:35.414Z,30.13
2017-06-19T12:02:44.672Z,30.02
2017-06-19T12:03:53.833Z,29.98
2017-06-19T12:05:03.077Z,29.92
2017-06-19T12:06:12.370Z,29.95
2017-06-19T12:07:21.959Z,30.07
2017-06-19T12:08:30.862Z,30.1
2017-06-19T12:09:39.918Z,29.9
2017-06-19T12:10:49.153Z,29.95
2017-06-19T12:11:58.429Z,30.02
2017-06-19T12:13:07.339Z,30.07
2017-06-19T12:14:17.101Z,30.2
2017-06-19T12:15:26.113Z,30.42
2017-06-19T12:16:35.017Z,30.38
2017-06-19T12:17:44.250Z,30.51
2017-06-19T12:18:53.188Z,30.55
2017-06-19T12:20:02.452Z,30.35
2017-06-19T12:21:11.846Z,30.55
2017-06-19T12:22:21.082Z,30.57
2017-06-19T12:23:30.311Z,30.58
2017-06-19T12:24:39.232Z,30.82
2017-06-19T12:25:48.796Z,30.88
2017-06-19T12:26:58.440Z,31.04
2017-06-19T12:28:07.712Z,31.13
2017-06-19T12:29:16.626Z,31.01
2017-06-19T12:30:25.536Z,31.01
2017-06-19T12:31:34.776Z,31.12
2017-06-19T12:32:43.692Z,31.13
2017-06-19T12:33:52.603Z,31.13
2017-06-19T12:35:01.515Z,31.02
2017-06-19T12:36:10.771Z,31.01
2017-06-19T12:37:19.682Z,31.14
2017-06-19T12:38:28.649Z,31.48
2017-06-19T12:39:37.891Z,31.65
2017-06-19T12:40:47.170Z,31.85
2017-06-19T12:41:56.414Z,31.89
2017-06-19T12:43:05.332Z,31.81
2017-06-19T12:44:14.294Z,31.78
2017-06-19T12:45:23.538Z,32.03
2017-06-19T12:46:32.450Z,32.03
2017-06-19T12:47:41.691Z,32.06
2017-06-19T12:48:50.943Z,31.89
2017-06-19T12:49:59.919Z,31.91
2017-06-19T12:51:09.161Z,32.01
2017-06-19T12:52:18.400Z,31.99
2017-06-19T12:53:27.317Z,32.04
2017-06-19T12:54:36.232Z,32.15
2017-06-19T12:55:45.622Z,32.23
2017-06-19T12:56:54.866Z,32.25
2017-06-19T12:58:03.785Z,32.18
2017-06-19T12:59:12.699Z,32.07
2017-06-19T13:00:21.955Z,32.07
2017-06-19T13:01:31.606Z,32.01
2017-06-19T13:02:40.518Z,32.03
2017-06-19T13:03:49.431Z,32.04
2017-06-19T13:04:58.343Z,32.04
2017-06-19T13:06:07.257Z,32.3
2017-06-19T13:07:16.215Z,32.28
2017-06-19T13:08:25.147Z,32.33
2017-06-19T13:09:34.061Z,32.11
2017-06-19T13:10:42.974Z,32.01
2017-06-19T13:11:51.951Z,31.96
2017-06-19T13:13:01.209Z,31.99
2017-06-19T13:14:10.133Z,32.38
2017-06-19T13:15:19.064Z,32.94
2017-06-19T13:16:28.316Z,33.16
2017-06-19T13:17:37.558Z,33.44
2017-06-19T13:18:46.797Z,33.65
2017-06-19T13:19:56.039Z,33.47
2017-06-19T13:21:04.958Z,33.14
2017-06-19T13:22:13.894Z,32.84
2017-06-19T13:23:23.133Z,32.96
2017-06-19T13:24:32.066Z,32.74
2017-06-19T13:25:40.983Z,32.89
2017-06-19T13:26:50.242Z,32.99
2017-06-19T13:28:00.140Z,33.07
2017-06-19T13:29:09.112Z,33.16
2017-06-19T13:30:18.350Z,33.37
2017-06-19T13:31:27.602Z,33.56
2017-06-19T13:32:37.172Z,33.5
2017-06-19T13:33:46.121Z,33.5
2017-06-19T13:34:55.292Z,33.5
2017-06-19T13:36:04.548Z,33.34
2017-06-19T13:37:13.788Z,33.29
2017-06-19T13:38:22.709Z,33.32
2017-06-19T13:39:31.621Z,33.37
2017-06-19T13:40:40.834Z,33.12
2017-06-19T13:41:49.757Z,32.96
2017-06-19T13:42:59.008Z,32.66
2017-06-19T13:44:08.253Z,32.82
2017-06-19T13:45:17.168Z,33.45
2017-06-19T13:46:26.421Z,33.57
2017-06-19T13:47:35.335Z,33.56
2017-06-19T13:48:44.901Z,33.54
2017-06-19T13:49:53.843Z,33.57
2017-06-19T13:51:03.084Z,33.72
2017-06-19T13:52:12.160Z,33.86
2017-06-19T13:53:21.079Z,34.17
2017-06-19T13:54:30.002Z,34
2017-06-19T13:55:38.921Z,33.86
2017-06-19T13:56:47.840Z,33.57
2017-06-19T13:57:56.758Z,34
2017-06-19T13:59:05.671Z,33.69
2017-06-19T14:00:14.594Z,33.91
2017-06-19T14:01:23.512Z,34.24
2017-06-19T14:02:32.428Z,34.44
2017-06-19T14:03:41.445Z,34.59
2017-06-19T14:04:50.362Z,34.49
2017-06-19T14:05:59.930Z,34.8
2017-06-19T14:07:09.174Z,34.88
2017-06-19T14:08:18.412Z,34.7
2017-06-19T14:09:27.587Z,34.65
2017-06-19T14:10:36.505Z,34.53
2017-06-19T14:11:45.422Z,34.81
2017-06-19T14:12:54.666Z,34.92
2017-06-19T14:14:03.584Z,35.15
2017-06-19T14:15:13.080Z,34.92
2017-06-19T14:16:21.998Z,35.04
2017-06-19T14:17:30.926Z,35.19
2017-06-19T14:18:39.849Z,35.1
2017-06-19T14:19:48.764Z,35.23
2017-06-19T14:20:58.017Z,35.48
2017-06-19T14:22:06.942Z,35.66
2017-06-19T14:23:15.874Z,35.72
2017-06-19T14:24:24.799Z,35.74
2017-06-19T14:25:33.717Z,35.84
2017-06-19T14:26:43.062Z,36.15
2017-06-19T14:27:51.982Z,35.97
2017-06-19T14:29:00.898Z,35.89
2017-06-19T14:30:09.822Z,35.92
2017-06-19T14:31:19.094Z,35.66
2017-06-19T14:32:28.064Z,35.62
2017-06-19T14:33:37.057Z,35.74
2017-06-19T14:34:46.063Z,36.01
2017-06-19T14:35:55.112Z,36
2017-06-19T14:37:04.092Z,35.93
2017-06-19T14:38:13.523Z,35.99
2017-06-19T14:39:22.476Z,35.59
2017-06-19T14:40:31.400Z,35.25
2017-06-19T14:41:40.353Z,35.09
2017-06-19T14:42:49.270Z,35.43
2017-06-19T14:43:58.218Z,35.11
2017-06-19T14:45:07.141Z,35.15
2017-06-19T14:46:16.080Z,35.15
2017-06-19T14:47:25.647Z,34.56
2017-06-19T14:48:34.575Z,34.88
2017-06-19T14:49:43.495Z,34.78
2017-06-19T14:50:52.411Z,34.42
2017-06-19T14:52:01.658Z,34.34
2017-06-19T14:53:10.586Z,34.17
2017-06-19T14:54:19.496Z,33.93